sensor_id;sensor_type;location;lat;lon;timestamp;P1;durP1;ratioP1;P2;durP2;ratioP2
58553;SDS011;48119;53.218;6.576;2023-07-13T00:00:34;8.05;;;2.78;;
58553;SDS011;48119;53.218;6.576;2023-07-13T00:03:01;7.72;;;2.65;;
58553;SDS011;48119;53.218;6.576;2023-07-13T00:05:27;8.98;;;3.05;;
58553;SDS011;48119;53.218;6.576;2023-07-13T00:07:56;8.45;;;2.72;;
58553;SDS011;48119;53.218;6.576;2023-07-13T00:10:22;11.02;;;2.78;;
58553;SDS011;48119;53.218;6.576;2023-07-13T00:12:51;7.78;;;2.83;;
58553;SDS011;48119;53.218;6.576;2023-07-13T00:15:21;9.02;;;2.10;;
58553;SDS011;48119;53.218;6.576;2023-07-13T00:17:51;11.43;;;3.30;;
58553;SDS011;48119;53.218;6.576;2023-07-13T00:20:18;8.00;;;2.85;;
58553;SDS011;48119;53.218;6.576;2023-07-13T00:22:47;8.52;;;2.85;;
58553;SDS011;48119;53.218;6.576;2023-07-13T00:25:14;15.85;;;3.53;;
58553;SDS011;48119;53.218;6.576;2023-07-13T00:27:41;8.85;;;2.42;;
58553;SDS011;48119;53.218;6.576;2023-07-13T00:30:07;7.43;;;2.30;;
58553;SDS011;48119;53.218;6.576;2023-07-13T00:32:34;8.32;;;2.65;;
58553;SDS011;48119;53.218;6.576;2023-07-13T00:35:00;9.40;;;3.10;;
58553;SDS011;48119;53.218;6.576;2023-07-13T00:37:28;9.43;;;2.80;;
58553;SDS011;48119;53.218;6.576;2023-07-13T00:39:54;7.28;;;2.30;;
58553;SDS011;48119;53.218;6.576;2023-07-13T00:42:20;11.90;;;2.72;;
58553;SDS011;48119;53.218;6.576;2023-07-13T00:47:32;10.35;;;2.67;;
58553;SDS011;48119;53.218;6.576;2023-07-13T00:49:59;8.38;;;2.42;;
58553;SDS011;48119;53.218;6.576;2023-07-13T00:52:25;10.05;;;3.15;;
58553;SDS011;48119;53.218;6.576;2023-07-13T00:54:51;8.93;;;2.92;;
58553;SDS011;48119;53.218;6.576;2023-07-13T00:57:17;12.40;;;3.13;;
58553;SDS011;48119;53.218;6.576;2023-07-13T00:59:46;12.05;;;2.80;;
58553;SDS011;48119;53.218;6.576;2023-07-13T01:02:17;8.57;;;3.35;;
58553;SDS011;48119;53.218;6.576;2023-07-13T01:04:43;9.95;;;3.45;;
58553;SDS011;48119;53.218;6.576;2023-07-13T01:07:09;12.85;;;3.45;;
58553;SDS011;48119;53.218;6.576;2023-07-13T01:09:35;8.20;;;3.28;;
58553;SDS011;48119;53.218;6.576;2023-07-13T01:12:01;8.20;;;3.25;;
58553;SDS011;48119;53.218;6.576;2023-07-13T01:14:28;12.45;;;3.05;;
58553;SDS011;48119;53.218;6.576;2023-07-13T01:16:53;8.00;;;3.35;;
58553;SDS011;48119;53.218;6.576;2023-07-13T01:19:40;9.20;;;3.85;;
58553;SDS011;48119;53.218;6.576;2023-07-13T01:22:13;7.15;;;2.95;;
58553;SDS011;48119;53.218;6.576;2023-07-13T01:24:41;4.95;;;2.60;;
58553;SDS011;48119;53.218;6.576;2023-07-13T01:27:09;8.40;;;3.00;;
58553;SDS011;48119;53.218;6.576;2023-07-13T01:29:38;14.02;;;4.00;;
58553;SDS011;48119;53.218;6.576;2023-07-13T01:32:10;9.35;;;2.83;;
58553;SDS011;48119;53.218;6.576;2023-07-13T01:34:41;6.80;;;3.33;;
58553;SDS011;48119;53.218;6.576;2023-07-13T01:37:10;6.90;;;3.03;;
58553;SDS011;48119;53.218;6.576;2023-07-13T01:39:36;9.52;;;3.20;;
58553;SDS011;48119;53.218;6.576;2023-07-13T01:42:02;9.50;;;3.10;;
58553;SDS011;48119;53.218;6.576;2023-07-13T01:44:28;9.38;;;3.38;;
58553;SDS011;48119;53.218;6.576;2023-07-13T01:46:54;11.00;;;3.03;;
58553;SDS011;48119;53.218;6.576;2023-07-13T01:49:20;7.13;;;3.55;;
58553;SDS011;48119;53.218;6.576;2023-07-13T01:51:46;8.18;;;2.83;;
58553;SDS011;48119;53.218;6.576;2023-07-13T01:54:12;10.85;;;3.17;;
58553;SDS011;48119;53.218;6.576;2023-07-13T01:56:38;9.02;;;3.78;;
58553;SDS011;48119;53.218;6.576;2023-07-13T01:59:04;7.85;;;2.47;;
58553;SDS011;48119;53.218;6.576;2023-07-13T02:01:30;9.07;;;3.05;;
58553;SDS011;48119;53.218;6.576;2023-07-13T02:03:56;9.15;;;2.83;;
58553;SDS011;48119;53.218;6.576;2023-07-13T02:06:22;10.75;;;3.10;;
58553;SDS011;48119;53.218;6.576;2023-07-13T02:08:47;8.10;;;2.47;;
58553;SDS011;48119;53.218;6.576;2023-07-13T02:11:13;8.93;;;2.78;;
58553;SDS011;48119;53.218;6.576;2023-07-13T02:13:39;8.90;;;3.17;;
58553;SDS011;48119;53.218;6.576;2023-07-13T02:16:05;10.32;;;2.60;;
58553;SDS011;48119;53.218;6.576;2023-07-13T02:18:31;8.45;;;3.50;;
58553;SDS011;48119;53.218;6.576;2023-07-13T02:20:57;7.97;;;2.45;;
58553;SDS011;48119;53.218;6.576;2023-07-13T02:23:23;7.05;;;3.22;;
58553;SDS011;48119;53.218;6.576;2023-07-13T02:25:48;5.78;;;2.28;;
58553;SDS011;48119;53.218;6.576;2023-07-13T02:28:14;10.00;;;2.50;;
58553;SDS011;48119;53.218;6.576;2023-07-13T02:30:40;9.90;;;2.78;;
58553;SDS011;48119;53.218;6.576;2023-07-13T02:33:06;11.52;;;2.92;;
58553;SDS011;48119;53.218;6.576;2023-07-13T02:35:32;7.65;;;2.45;;
58553;SDS011;48119;53.218;6.576;2023-07-13T02:37:57;11.10;;;2.70;;
58553;SDS011;48119;53.218;6.576;2023-07-13T02:40:23;11.35;;;2.83;;
58553;SDS011;48119;53.218;6.576;2023-07-13T02:42:49;7.38;;;2.50;;
58553;SDS011;48119;53.218;6.576;2023-07-13T02:45:14;6.57;;;2.30;;
58553;SDS011;48119;53.218;6.576;2023-07-13T02:47:41;10.20;;;2.63;;
58553;SDS011;48119;53.218;6.576;2023-07-13T02:50:07;11.43;;;2.63;;
58553;SDS011;48119;53.218;6.576;2023-07-13T02:52:33;9.50;;;2.55;;
58553;SDS011;48119;53.218;6.576;2023-07-13T02:54:59;10.18;;;2.75;;
58553;SDS011;48119;53.218;6.576;2023-07-13T02:57:25;12.10;;;3.75;;
58553;SDS011;48119;53.218;6.576;2023-07-13T02:59:53;8.82;;;3.35;;
58553;SDS011;48119;53.218;6.576;2023-07-13T03:02:18;13.07;;;3.42;;
58553;SDS011;48119;53.218;6.576;2023-07-13T03:04:45;13.15;;;3.70;;
58553;SDS011;48119;53.218;6.576;2023-07-13T03:07:11;11.38;;;3.65;;
58553;SDS011;48119;53.218;6.576;2023-07-13T03:09:39;7.55;;;2.85;;
58553;SDS011;48119;53.218;6.576;2023-07-13T03:12:05;11.05;;;3.67;;
58553;SDS011;48119;53.218;6.576;2023-07-13T03:14:31;13.38;;;3.53;;
58553;SDS011;48119;53.218;6.576;2023-07-13T03:16:57;10.07;;;3.25;;
58553;SDS011;48119;53.218;6.576;2023-07-13T03:19:23;14.82;;;3.83;;
58553;SDS011;48119;53.218;6.576;2023-07-13T03:21:51;12.32;;;4.57;;
58553;SDS011;48119;53.218;6.576;2023-07-13T03:24:17;10.48;;;3.47;;
58553;SDS011;48119;53.218;6.576;2023-07-13T03:26:43;11.95;;;3.17;;
58553;SDS011;48119;53.218;6.576;2023-07-13T03:29:08;8.68;;;3.78;;
58553;SDS011;48119;53.218;6.576;2023-07-13T03:31:36;18.85;;;4.10;;
58553;SDS011;48119;53.218;6.576;2023-07-13T03:34:02;13.52;;;4.30;;
58553;SDS011;48119;53.218;6.576;2023-07-13T03:36:29;11.40;;;4.07;;
58553;SDS011;48119;53.218;6.576;2023-07-13T03:38:57;11.55;;;3.08;;
58553;SDS011;48119;53.218;6.576;2023-07-13T03:41:25;7.45;;;3.00;;
58553;SDS011;48119;53.218;6.576;2023-07-13T03:43:53;11.82;;;3.83;;
58553;SDS011;48119;53.218;6.576;2023-07-13T03:46:19;10.73;;;3.38;;
58553;SDS011;48119;53.218;6.576;2023-07-13T03:48:45;16.02;;;3.35;;
58553;SDS011;48119;53.218;6.576;2023-07-13T03:51:13;10.45;;;3.50;;
58553;SDS011;48119;53.218;6.576;2023-07-13T03:53:40;10.07;;;3.92;;
58553;SDS011;48119;53.218;6.576;2023-07-13T03:56:08;7.28;;;3.15;;
58553;SDS011;48119;53.218;6.576;2023-07-13T03:58:36;7.68;;;3.47;;
58553;SDS011;48119;53.218;6.576;2023-07-13T04:01:04;8.63;;;2.95;;
58553;SDS011;48119;53.218;6.576;2023-07-13T04:03:31;13.45;;;3.53;;
58553;SDS011;48119;53.218;6.576;2023-07-13T04:05:59;12.63;;;3.55;;
58553;SDS011;48119;53.218;6.576;2023-07-13T04:08:29;8.20;;;3.45;;
58553;SDS011;48119;53.218;6.576;2023-07-13T04:10:57;11.52;;;3.65;;
58553;SDS011;48119;53.218;6.576;2023-07-13T04:13:23;10.35;;;3.25;;
58553;SDS011;48119;53.218;6.576;2023-07-13T04:15:50;10.85;;;3.42;;
58553;SDS011;48119;53.218;6.576;2023-07-13T04:18:16;12.27;;;3.60;;
58553;SDS011;48119;53.218;6.576;2023-07-13T04:20:42;15.20;;;3.70;;
58553;SDS011;48119;53.218;6.576;2023-07-13T04:23:08;7.45;;;3.55;;
58553;SDS011;48119;53.218;6.576;2023-07-13T04:25:34;7.55;;;2.72;;
58553;SDS011;48119;53.218;6.576;2023-07-13T04:28:00;11.90;;;3.05;;
58553;SDS011;48119;53.218;6.576;2023-07-13T04:30:28;15.38;;;3.78;;
58553;SDS011;48119;53.218;6.576;2023-07-13T04:32:54;10.27;;;3.40;;
58553;SDS011;48119;53.218;6.576;2023-07-13T04:35:20;9.10;;;4.07;;
58553;SDS011;48119;53.218;6.576;2023-07-13T04:37:47;12.43;;;4.45;;
58553;SDS011;48119;53.218;6.576;2023-07-13T04:40:15;8.77;;;3.10;;
58553;SDS011;48119;53.218;6.576;2023-07-13T04:42:42;12.70;;;3.88;;
58553;SDS011;48119;53.218;6.576;2023-07-13T04:45:09;11.55;;;4.05;;
58553;SDS011;48119;53.218;6.576;2023-07-13T04:47:35;11.57;;;3.63;;
58553;SDS011;48119;53.218;6.576;2023-07-13T04:50:01;15.73;;;4.25;;
58553;SDS011;48119;53.218;6.576;2023-07-13T04:52:27;9.50;;;3.58;;
58553;SDS011;48119;53.218;6.576;2023-07-13T04:54:52;8.38;;;3.78;;
58553;SDS011;48119;53.218;6.576;2023-07-13T04:57:18;11.15;;;3.65;;
58553;SDS011;48119;53.218;6.576;2023-07-13T04:59:44;12.38;;;4.72;;
58553;SDS011;48119;53.218;6.576;2023-07-13T05:02:10;10.85;;;3.75;;
58553;SDS011;48119;53.218;6.576;2023-07-13T05:04:36;14.73;;;3.63;;
58553;SDS011;48119;53.218;6.576;2023-07-13T05:07:01;11.77;;;3.70;;
58553;SDS011;48119;53.218;6.576;2023-07-13T05:09:29;8.75;;;3.15;;
58553;SDS011;48119;53.218;6.576;2023-07-13T05:11:54;7.95;;;3.42;;
58553;SDS011;48119;53.218;6.576;2023-07-13T05:14:20;13.40;;;3.67;;
58553;SDS011;48119;53.218;6.576;2023-07-13T05:16:46;9.73;;;3.30;;
58553;SDS011;48119;53.218;6.576;2023-07-13T05:19:12;12.13;;;3.97;;
58553;SDS011;48119;53.218;6.576;2023-07-13T05:21:37;14.38;;;4.00;;
58553;SDS011;48119;53.218;6.576;2023-07-13T05:24:04;9.85;;;3.70;;
58553;SDS011;48119;53.218;6.576;2023-07-13T05:26:30;10.65;;;4.03;;
58553;SDS011;48119;53.218;6.576;2023-07-13T05:28:55;15.55;;;3.85;;
58553;SDS011;48119;53.218;6.576;2023-07-13T05:31:21;9.98;;;3.58;;
58553;SDS011;48119;53.218;6.576;2023-07-13T05:33:47;12.88;;;3.25;;
58553;SDS011;48119;53.218;6.576;2023-07-13T05:36:13;12.10;;;3.75;;
58553;SDS011;48119;53.218;6.576;2023-07-13T05:38:38;10.32;;;2.95;;
58553;SDS011;48119;53.218;6.576;2023-07-13T05:41:05;10.13;;;3.22;;
58553;SDS011;48119;53.218;6.576;2023-07-13T05:43:32;9.18;;;2.92;;
58553;SDS011;48119;53.218;6.576;2023-07-13T05:45:58;13.25;;;3.25;;
58553;SDS011;48119;53.218;6.576;2023-07-13T05:48:23;10.95;;;3.80;;
58553;SDS011;48119;53.218;6.576;2023-07-13T05:50:49;12.02;;;3.75;;
58553;SDS011;48119;53.218;6.576;2023-07-13T05:53:15;13.80;;;3.42;;
58553;SDS011;48119;53.218;6.576;2023-07-13T05:55:42;13.93;;;3.53;;
58553;SDS011;48119;53.218;6.576;2023-07-13T05:58:08;12.18;;;3.20;;
58553;SDS011;48119;53.218;6.576;2023-07-13T06:00:34;22.35;;;5.05;;
58553;SDS011;48119;53.218;6.576;2023-07-13T06:03:00;10.80;;;2.42;;
58553;SDS011;48119;53.218;6.576;2023-07-13T06:05:26;9.70;;;3.10;;
58553;SDS011;48119;53.218;6.576;2023-07-13T06:07:54;10.45;;;3.63;;
58553;SDS011;48119;53.218;6.576;2023-07-13T06:10:20;10.32;;;3.42;;
58553;SDS011;48119;53.218;6.576;2023-07-13T06:12:46;11.40;;;3.42;;
58553;SDS011;48119;53.218;6.576;2023-07-13T06:15:11;11.00;;;3.47;;
58553;SDS011;48119;53.218;6.576;2023-07-13T06:17:37;12.60;;;3.50;;
58553;SDS011;48119;53.218;6.576;2023-07-13T06:20:03;11.52;;;3.40;;
58553;SDS011;48119;53.218;6.576;2023-07-13T06:22:29;10.90;;;3.13;;
58553;SDS011;48119;53.218;6.576;2023-07-13T06:24:55;10.43;;;2.85;;
58553;SDS011;48119;53.218;6.576;2023-07-13T06:27:22;10.93;;;3.10;;
58553;SDS011;48119;53.218;6.576;2023-07-13T06:29:48;11.32;;;3.13;;
58553;SDS011;48119;53.218;6.576;2023-07-13T06:32:14;8.95;;;3.22;;
58553;SDS011;48119;53.218;6.576;2023-07-13T06:34:39;8.10;;;2.85;;
58553;SDS011;48119;53.218;6.576;2023-07-13T06:37:05;8.43;;;3.38;;
58553;SDS011;48119;53.218;6.576;2023-07-13T06:39:32;10.52;;;3.22;;
58553;SDS011;48119;53.218;6.576;2023-07-13T06:41:57;6.68;;;2.47;;
58553;SDS011;48119;53.218;6.576;2023-07-13T06:44:23;5.53;;;2.47;;
58553;SDS011;48119;53.218;6.576;2023-07-13T06:46:49;13.55;;;3.47;;
58553;SDS011;48119;53.218;6.576;2023-07-13T06:49:15;8.80;;;3.05;;
58553;SDS011;48119;53.218;6.576;2023-07-13T06:51:43;8.25;;;3.33;;
58553;SDS011;48119;53.218;6.576;2023-07-13T06:54:09;10.13;;;4.05;;
58553;SDS011;48119;53.218;6.576;2023-07-13T06:56:35;8.38;;;3.50;;
58553;SDS011;48119;53.218;6.576;2023-07-13T06:59:01;9.80;;;3.45;;
58553;SDS011;48119;53.218;6.576;2023-07-13T07:01:26;7.55;;;3.13;;
58553;SDS011;48119;53.218;6.576;2023-07-13T07:03:52;13.13;;;4.25;;
58553;SDS011;48119;53.218;6.576;2023-07-13T07:06:19;8.35;;;2.78;;
58553;SDS011;48119;53.218;6.576;2023-07-13T07:08:48;8.50;;;2.38;;
58553;SDS011;48119;53.218;6.576;2023-07-13T07:11:22;6.22;;;2.60;;
58553;SDS011;48119;53.218;6.576;2023-07-13T07:13:50;7.72;;;3.47;;
58553;SDS011;48119;53.218;6.576;2023-07-13T07:16:17;7.85;;;2.55;;
58553;SDS011;48119;53.218;6.576;2023-07-13T07:18:44;11.00;;;3.72;;
58553;SDS011;48119;53.218;6.576;2023-07-13T07:21:10;36.92;;;7.97;;
58553;SDS011;48119;53.218;6.576;2023-07-13T07:23:35;14.32;;;3.60;;
58553;SDS011;48119;53.218;6.576;2023-07-13T07:26:04;12.93;;;2.97;;
58553;SDS011;48119;53.218;6.576;2023-07-13T07:28:30;6.05;;;1.77;;
58553;SDS011;48119;53.218;6.576;2023-07-13T07:30:57;4.22;;;2.28;;
58553;SDS011;48119;53.218;6.576;2023-07-13T07:33:24;5.60;;;2.20;;
58553;SDS011;48119;53.218;6.576;2023-07-13T07:35:52;7.78;;;3.03;;
58553;SDS011;48119;53.218;6.576;2023-07-13T07:38:18;10.85;;;3.15;;
58553;SDS011;48119;53.218;6.576;2023-07-13T07:40:44;3.28;;;1.85;;
58553;SDS011;48119;53.218;6.576;2023-07-13T07:43:10;8.30;;;2.55;;
58553;SDS011;48119;53.218;6.576;2023-07-13T07:45:37;3.90;;;1.67;;
58553;SDS011;48119;53.218;6.576;2023-07-13T07:48:04;6.80;;;2.53;;
58553;SDS011;48119;53.218;6.576;2023-07-13T07:50:30;3.95;;;1.90;;
58553;SDS011;48119;53.218;6.576;2023-07-13T07:52:57;4.78;;;2.13;;
58553;SDS011;48119;53.218;6.576;2023-07-13T07:55:23;6.78;;;2.97;;
58553;SDS011;48119;53.218;6.576;2023-07-13T07:57:50;4.03;;;1.90;;
58553;SDS011;48119;53.218;6.576;2023-07-13T08:00:16;5.90;;;2.05;;
58553;SDS011;48119;53.218;6.576;2023-07-13T08:02:43;4.28;;;2.67;;
58553;SDS011;48119;53.218;6.576;2023-07-13T08:05:09;4.75;;;2.38;;
58553;SDS011;48119;53.218;6.576;2023-07-13T08:07:36;7.88;;;3.50;;
58553;SDS011;48119;53.218;6.576;2023-07-13T08:10:03;6.90;;;2.40;;
58553;SDS011;48119;53.218;6.576;2023-07-13T08:12:30;5.32;;;1.80;;
58553;SDS011;48119;53.218;6.576;2023-07-13T08:14:58;8.40;;;2.13;;
58553;SDS011;48119;53.218;6.576;2023-07-13T08:17:25;3.67;;;1.42;;
58553;SDS011;48119;53.218;6.576;2023-07-13T08:19:51;5.15;;;2.05;;
58553;SDS011;48119;53.218;6.576;2023-07-13T08:22:17;2.90;;;1.60;;
58553;SDS011;48119;53.218;6.576;2023-07-13T08:24:43;2.78;;;1.60;;
58553;SDS011;48119;53.218;6.576;2023-07-13T08:27:10;3.30;;;1.25;;
58553;SDS011;48119;53.218;6.576;2023-07-13T08:29:37;3.42;;;1.67;;
58553;SDS011;48119;53.218;6.576;2023-07-13T08:32:04;11.35;;;1.90;;
58553;SDS011;48119;53.218;6.576;2023-07-13T08:34:32;3.47;;;1.50;;
58553;SDS011;48119;53.218;6.576;2023-07-13T08:36:57;10.02;;;2.53;;
58553;SDS011;48119;53.218;6.576;2023-07-13T08:39:23;8.70;;;2.08;;
58553;SDS011;48119;53.218;6.576;2023-07-13T08:41:51;4.95;;;2.00;;
58553;SDS011;48119;53.218;6.576;2023-07-13T08:44:26;8.93;;;2.92;;
58553;SDS011;48119;53.218;6.576;2023-07-13T08:47:03;7.70;;;2.85;;
58553;SDS011;48119;53.218;6.576;2023-07-13T08:49:30;6.10;;;1.98;;
58553;SDS011;48119;53.218;6.576;2023-07-13T08:52:00;4.05;;;2.08;;
58553;SDS011;48119;53.218;6.576;2023-07-13T08:54:43;5.25;;;1.77;;
58553;SDS011;48119;53.218;6.576;2023-07-13T08:57:15;6.00;;;2.35;;
58553;SDS011;48119;53.218;6.576;2023-07-13T08:59:43;7.00;;;2.47;;
58553;SDS011;48119;53.218;6.576;2023-07-13T09:05:10;6.88;;;2.42;;
58553;SDS011;48119;53.218;6.576;2023-07-13T09:10:41;6.72;;;2.20;;
58553;SDS011;48119;53.218;6.576;2023-07-13T09:13:20;6.63;;;2.25;;
58553;SDS011;48119;53.218;6.576;2023-07-13T09:15:51;6.50;;;1.88;;
58553;SDS011;48119;53.218;6.576;2023-07-13T09:21:00;5.45;;;2.20;;
58553;SDS011;48119;53.218;6.576;2023-07-13T09:23:30;6.18;;;2.38;;
58553;SDS011;48119;53.218;6.576;2023-07-13T09:28:44;6.07;;;2.42;;
58553;SDS011;48119;53.218;6.576;2023-07-13T09:34:14;8.82;;;2.05;;
58553;SDS011;48119;53.218;6.576;2023-07-13T09:36:40;7.07;;;2.00;;
58553;SDS011;48119;53.218;6.576;2023-07-13T09:41:53;3.88;;;1.83;;
58553;SDS011;48119;53.218;6.576;2023-07-13T09:47:02;9.95;;;2.40;;
58553;SDS011;48119;53.218;6.576;2023-07-13T09:49:37;4.53;;;1.83;;
58553;SDS011;48119;53.218;6.576;2023-07-13T09:52:04;7.78;;;2.58;;
58553;SDS011;48119;53.218;6.576;2023-07-13T09:54:35;5.53;;;2.03;;
58553;SDS011;48119;53.218;6.576;2023-07-13T09:57:01;9.55;;;2.38;;
58553;SDS011;48119;53.218;6.576;2023-07-13T09:59:30;5.80;;;2.35;;
58553;SDS011;48119;53.218;6.576;2023-07-13T10:01:58;5.80;;;1.63;;
58553;SDS011;48119;53.218;6.576;2023-07-13T10:04:31;6.82;;;1.90;;
58553;SDS011;48119;53.218;6.576;2023-07-13T10:07:05;4.25;;;2.00;;
58553;SDS011;48119;53.218;6.576;2023-07-13T10:09:38;7.47;;;2.25;;
58553;SDS011;48119;53.218;6.576;2023-07-13T10:12:04;7.15;;;1.65;;
58553;SDS011;48119;53.218;6.576;2023-07-13T10:14:39;7.68;;;1.92;;
58553;SDS011;48119;53.218;6.576;2023-07-13T10:17:08;3.42;;;1.92;;
58553;SDS011;48119;53.218;6.576;2023-07-13T10:19:38;3.88;;;1.75;;
58553;SDS011;48119;53.218;6.576;2023-07-13T10:24:58;4.30;;;1.52;;
58553;SDS011;48119;53.218;6.576;2023-07-13T10:27:33;5.75;;;2.58;;
58553;SDS011;48119;53.218;6.576;2023-07-13T10:30:14;2.85;;;1.63;;
58553;SDS011;48119;53.218;6.576;2023-07-13T10:32:48;4.65;;;1.50;;
58553;SDS011;48119;53.218;6.576;2023-07-13T10:35:17;4.13;;;1.33;;
58553;SDS011;48119;53.218;6.576;2023-07-13T10:37:54;2.55;;;1.17;;
58553;SDS011;48119;53.218;6.576;2023-07-13T10:41:10;4.47;;;1.52;;
58553;SDS011;48119;53.218;6.576;2023-07-13T10:43:18;3.97;;;1.10;;
58553;SDS011;48119;53.218;6.576;2023-07-13T10:45:50;5.35;;;1.40;;
58553;SDS011;48119;53.218;6.576;2023-07-13T10:48:16;3.83;;;1.48;;
58553;SDS011;48119;53.218;6.576;2023-07-13T10:50:44;5.25;;;1.80;;
58553;SDS011;48119;53.218;6.576;2023-07-13T10:53:20;5.43;;;1.33;;
58553;SDS011;48119;53.218;6.576;2023-07-13T10:58:39;5.75;;;1.40;;
58553;SDS011;48119;53.218;6.576;2023-07-13T11:01:10;4.25;;;1.27;;
58553;SDS011;48119;53.218;6.576;2023-07-13T11:21:28;2.88;;;1.17;;
58553;SDS011;48119;53.218;6.576;2023-07-13T11:31:57;2.88;;;1.40;;
58553;SDS011;48119;53.218;6.576;2023-07-13T11:34:28;4.70;;;1.70;;
58553;SDS011;48119;53.218;6.576;2023-07-13T11:36:59;4.88;;;1.80;;
58553;SDS011;48119;53.218;6.576;2023-07-13T11:39:29;4.43;;;1.58;;
58553;SDS011;48119;53.218;6.576;2023-07-13T11:42:02;5.45;;;1.60;;
58553;SDS011;48119;53.218;6.576;2023-07-13T11:44:32;4.63;;;1.50;;
58553;SDS011;48119;53.218;6.576;2023-07-13T11:47:09;3.22;;;1.98;;
58553;SDS011;48119;53.218;6.576;2023-07-13T11:49:41;5.07;;;1.38;;
58553;SDS011;48119;53.218;6.576;2023-07-13T11:52:12;2.72;;;1.33;;
58553;SDS011;48119;53.218;6.576;2023-07-13T11:54:56;6.63;;;1.67;;
58553;SDS011;48119;53.218;6.576;2023-07-13T11:57:28;4.60;;;1.70;;
58553;SDS011;48119;53.218;6.576;2023-07-13T11:59:56;5.10;;;1.15;;
58553;SDS011;48119;53.218;6.576;2023-07-13T12:02:35;3.97;;;1.20;;
58553;SDS011;48119;53.218;6.576;2023-07-13T12:05:04;2.95;;;1.30;;
58553;SDS011;48119;53.218;6.576;2023-07-13T12:07:32;3.17;;;1.52;;
58553;SDS011;48119;53.218;6.576;2023-07-13T12:12:34;4.30;;;2.03;;
58553;SDS011;48119;53.218;6.576;2023-07-13T12:15:05;5.85;;;2.22;;
58553;SDS011;48119;53.218;6.576;2023-07-13T12:17:40;3.90;;;1.27;;
58553;SDS011;48119;53.218;6.576;2023-07-13T12:20:17;4.88;;;1.70;;
58553;SDS011;48119;53.218;6.576;2023-07-13T12:22:52;3.05;;;1.55;;
58553;SDS011;48119;53.218;6.576;2023-07-13T12:25:19;4.90;;;1.63;;
58553;SDS011;48119;53.218;6.576;2023-07-13T12:27:50;4.22;;;1.25;;
58553;SDS011;48119;53.218;6.576;2023-07-13T12:33:05;5.57;;;1.70;;
58553;SDS011;48119;53.218;6.576;2023-07-13T12:35:39;3.30;;;1.83;;
58553;SDS011;48119;53.218;6.576;2023-07-13T12:38:12;4.18;;;1.88;;
58553;SDS011;48119;53.218;6.576;2023-07-13T12:40:39;2.85;;;1.40;;
58553;SDS011;48119;53.218;6.576;2023-07-13T12:43:10;2.53;;;1.10;;
58553;SDS011;48119;53.218;6.576;2023-07-13T12:45:37;3.10;;;1.27;;
58553;SDS011;48119;53.218;6.576;2023-07-13T12:48:21;6.38;;;1.67;;
58553;SDS011;48119;53.218;6.576;2023-07-13T12:50:48;2.58;;;1.05;;
58553;SDS011;48119;53.218;6.576;2023-07-13T12:53:19;2.00;;;0.93;;
58553;SDS011;48119;53.218;6.576;2023-07-13T13:00:53;6.32;;;1.52;;
58553;SDS011;48119;53.218;6.576;2023-07-13T13:03:24;5.97;;;1.30;;
58553;SDS011;48119;53.218;6.576;2023-07-13T13:05:59;3.75;;;1.52;;
58553;SDS011;48119;53.218;6.576;2023-07-13T13:08:30;4.50;;;1.38;;
58553;SDS011;48119;53.218;6.576;2023-07-13T13:10:57;7.50;;;1.63;;
58553;SDS011;48119;53.218;6.576;2023-07-13T13:13:23;3.65;;;1.35;;
58553;SDS011;48119;53.218;6.576;2023-07-13T13:15:49;5.95;;;1.67;;
58553;SDS011;48119;53.218;6.576;2023-07-13T13:18:24;3.40;;;1.35;;
58553;SDS011;48119;53.218;6.576;2023-07-13T13:20:50;3.97;;;1.70;;
58553;SDS011;48119;53.218;6.576;2023-07-13T13:23:18;2.83;;;1.38;;
58553;SDS011;48119;53.218;6.576;2023-07-13T13:25:49;4.75;;;1.92;;
58553;SDS011;48119;53.218;6.576;2023-07-13T13:28:16;7.57;;;2.03;;
58553;SDS011;48119;53.218;6.576;2023-07-13T13:30:44;4.30;;;1.58;;
58553;SDS011;48119;53.218;6.576;2023-07-13T13:33:13;5.13;;;1.45;;
58553;SDS011;48119;53.218;6.576;2023-07-13T13:35:42;3.50;;;1.63;;
58553;SDS011;48119;53.218;6.576;2023-07-13T13:38:12;5.15;;;1.70;;
58553;SDS011;48119;53.218;6.576;2023-07-13T13:40:42;3.95;;;1.80;;
58553;SDS011;48119;53.218;6.576;2023-07-13T13:43:26;4.68;;;2.08;;
58553;SDS011;48119;53.218;6.576;2023-07-13T13:45:53;5.65;;;2.10;;
58553;SDS011;48119;53.218;6.576;2023-07-13T13:48:31;6.35;;;1.85;;
58553;SDS011;48119;53.218;6.576;2023-07-13T13:51:00;3.60;;;1.52;;
58553;SDS011;48119;53.218;6.576;2023-07-13T13:53:29;4.60;;;1.73;;
58553;SDS011;48119;53.218;6.576;2023-07-13T13:55:54;6.90;;;2.25;;
58553;SDS011;48119;53.218;6.576;2023-07-13T13:58:20;4.60;;;1.80;;
58553;SDS011;48119;53.218;6.576;2023-07-13T14:00:47;7.97;;;2.20;;
58553;SDS011;48119;53.218;6.576;2023-07-13T14:03:18;8.30;;;1.80;;
58553;SDS011;48119;53.218;6.576;2023-07-13T14:05:45;6.40;;;1.58;;
58553;SDS011;48119;53.218;6.576;2023-07-13T14:08:12;2.42;;;1.33;;
58553;SDS011;48119;53.218;6.576;2023-07-13T14:10:47;3.53;;;1.67;;
58553;SDS011;48119;53.218;6.576;2023-07-13T14:13:19;6.57;;;1.85;;
58553;SDS011;48119;53.218;6.576;2023-07-13T14:15:56;4.70;;;2.05;;
58553;SDS011;48119;53.218;6.576;2023-07-13T14:18:22;7.85;;;2.08;;
58553;SDS011;48119;53.218;6.576;2023-07-13T14:20:49;4.43;;;2.30;;
58553;SDS011;48119;53.218;6.576;2023-07-13T14:23:17;4.30;;;1.80;;
58553;SDS011;48119;53.218;6.576;2023-07-13T14:25:44;5.40;;;1.67;;
58553;SDS011;48119;53.218;6.576;2023-07-13T14:28:32;5.65;;;1.60;;
58553;SDS011;48119;53.218;6.576;2023-07-13T14:33:22;4.57;;;1.73;;
58553;SDS011;48119;53.218;6.576;2023-07-13T14:35:49;3.83;;;2.42;;
58553;SDS011;48119;53.218;6.576;2023-07-13T14:38:17;7.90;;;2.28;;
58553;SDS011;48119;53.218;6.576;2023-07-13T14:40:45;4.03;;;2.22;;
58553;SDS011;48119;53.218;6.576;2023-07-13T14:43:14;3.78;;;1.63;;
58553;SDS011;48119;53.218;6.576;2023-07-13T14:45:42;4.72;;;2.05;;
58553;SDS011;48119;53.218;6.576;2023-07-13T14:48:20;6.40;;;2.30;;
58553;SDS011;48119;53.218;6.576;2023-07-13T14:50:51;6.05;;;1.98;;
58553;SDS011;48119;53.218;6.576;2023-07-13T14:53:20;5.78;;;2.15;;
58553;SDS011;48119;53.218;6.576;2023-07-13T14:55:45;3.97;;;1.75;;
58553;SDS011;48119;53.218;6.576;2023-07-13T14:58:11;4.97;;;1.98;;
58553;SDS011;48119;53.218;6.576;2023-07-13T15:00:38;5.82;;;2.05;;
58553;SDS011;48119;53.218;6.576;2023-07-13T15:03:05;4.13;;;2.08;;
58553;SDS011;48119;53.218;6.576;2023-07-13T15:05:50;3.53;;;1.90;;
58553;SDS011;48119;53.218;6.576;2023-07-13T15:08:18;5.93;;;1.90;;
58553;SDS011;48119;53.218;6.576;2023-07-13T15:10:44;5.70;;;2.22;;
58553;SDS011;48119;53.218;6.576;2023-07-13T15:13:19;5.15;;;2.28;;
58553;SDS011;48119;53.218;6.576;2023-07-13T15:15:47;6.93;;;2.10;;
58553;SDS011;48119;53.218;6.576;2023-07-13T15:18:21;9.32;;;3.35;;
58553;SDS011;48119;53.218;6.576;2023-07-13T15:20:48;7.03;;;3.10;;
58553;SDS011;48119;53.218;6.576;2023-07-13T15:23:16;5.30;;;2.22;;
58553;SDS011;48119;53.218;6.576;2023-07-13T15:25:42;7.30;;;2.42;;
58553;SDS011;48119;53.218;6.576;2023-07-13T15:28:09;4.63;;;1.95;;
58553;SDS011;48119;53.218;6.576;2023-07-13T15:30:47;6.20;;;2.30;;
58553;SDS011;48119;53.218;6.576;2023-07-13T15:33:27;3.70;;;1.92;;
58553;SDS011;48119;53.218;6.576;2023-07-13T15:35:55;7.35;;;2.80;;
58553;SDS011;48119;53.218;6.576;2023-07-13T15:38:27;13.05;;;3.20;;
58553;SDS011;48119;53.218;6.576;2023-07-13T15:40:55;5.40;;;2.30;;
58553;SDS011;48119;53.218;6.576;2023-07-13T15:43:21;7.45;;;2.92;;
58553;SDS011;48119;53.218;6.576;2023-07-13T15:45:51;4.55;;;2.30;;
58553;SDS011;48119;53.218;6.576;2023-07-13T15:48:20;7.85;;;2.55;;
58553;SDS011;48119;53.218;6.576;2023-07-13T15:50:51;8.18;;;2.40;;
58553;SDS011;48119;53.218;6.576;2023-07-13T15:53:22;7.20;;;2.08;;
58553;SDS011;48119;53.218;6.576;2023-07-13T15:55:50;6.70;;;2.67;;